Airfield :
LOGIN :

Register | Disclaimer

   EN    FR    IT 

 










Legend :    VFR   Marginal VFR   IFR   Intensive IFR   Very Intensive IFR
Visi :
Ceiling :
>= 8 km
>= 3000ft
5 to 8 km
1000 to 3000 ft
1500m to 5 km
500 to 1000 ft
800 to 1500m
200 to 500 ft
< 800m
< 200 ft
Symbols :   Thunderstorms  Fog  Heavy snow  Heavy precipitations  Wind > 20 kt
SIGMETs :     Misc.  Thunderstorms  Icing  Turbulence  Mountain Waves  Volcanic Ashes






- Airport Elevation : 885 ft
- IATA code : BAS


LFSB - Bale-Mulhouse

CURRENT METAR :
  • 051930Z AUTO 33008KT 9000 -RA BKN015 OVC024 04/04 Q1034 TEMPO 4000 -RA BR OVC003

EXPIRED METARs :
  • 051900Z AUTO 35007KT 320V020 9999 -RA SCT009 BKN017 BKN022 04/04 Q1034 TEMPO 4000 -RA BR OVC003
  • 051830Z AUTO 34008KT 9999 -RA BKN011 BKN016 OVC024 04/04 Q1034 TEMPO 4000 -RA BR OVC003
  • 051800Z AUTO 31007KT 9999 -RA BKN017 OVC023 05/04 Q1034 TEMPO 4000 -RA BR OVC003
  • 051730Z AUTO 28004KT 9999 FEW020 BKN027 BKN032 04/03 Q1034 TEMPO 4000 -RA BR OVC003
  • 051700Z AUTO 29005KT 9999 FEW027 SCT042 BKN100 04/03 Q1034 TEMPO 4000 -RADZ BR OVC003

TAF TAF LFSB
Valid from the 05 at 18:00 until the 06 at 18:00 UTC


051700Z 0518/0618 34008KT 9999 SCT030 SCT045
TEMPO 0518/0607 4000 -RA BR OVC003
TEMPO 0607/0611 BKN003
Met : +33 3 89 90 31 11



MET'MAP, your aeronautical weather chart ! - Copyright ORBIFLY December 2007 - Disclaimer

ORBIFLY MET'MAP TEAM :

Programming & Development : Alexandra Zaïnal
Original concept : Baudouin d'Aumeries
Technical & hardware support : Manuel Goepfert
Assistance : Marc-Olivier Méhu




SOURCES & CREDITS :

   NOAA